sensor_id;sensor_type;location;lat;lon;timestamp;temperature;humidity
57058;DHT22;55017;52.848;6.748;2023-05-15T00:01:25;12.60;99.90
57058;DHT22;55017;52.848;6.748;2023-05-15T00:03:51;12.60;99.90
57058;DHT22;55017;52.848;6.748;2023-05-15T00:06:17;12.70;99.90
57058;DHT22;55017;52.848;6.748;2023-05-15T00:08:43;12.70;99.90
57058;DHT22;55017;52.848;6.748;2023-05-15T00:11:09;12.70;99.90
57058;DHT22;55017;52.848;6.748;2023-05-15T00:13:35;12.60;99.90
57058;DHT22;55017;52.848;6.748;2023-05-15T00:16:06;12.70;99.90
57058;DHT22;55017;52.848;6.748;2023-05-15T00:18:32;12.70;99.90
57058;DHT22;55017;52.848;6.748;2023-05-15T00:20:58;12.70;99.90
57058;DHT22;55017;52.848;6.748;2023-05-15T00:23:23;12.70;99.90
57058;DHT22;55017;52.848;6.748;2023-05-15T00:25:49;12.70;99.90
57058;DHT22;55017;52.848;6.748;2023-05-15T00:28:14;12.70;99.90
57058;DHT22;55017;52.848;6.748;2023-05-15T00:30:40;12.70;99.90
57058;DHT22;55017;52.848;6.748;2023-05-15T00:33:06;12.60;99.90
57058;DHT22;55017;52.848;6.748;2023-05-15T00:35:32;12.60;99.90
57058;DHT22;55017;52.848;6.748;2023-05-15T00:37:57;12.60;99.90
57058;DHT22;55017;52.848;6.748;2023-05-15T00:40:24;12.80;99.90
57058;DHT22;55017;52.848;6.748;2023-05-15T00:42:51;12.80;99.90
57058;DHT22;55017;52.848;6.748;2023-05-15T00:45:18;12.70;99.90
57058;DHT22;55017;52.848;6.748;2023-05-15T00:47:44;12.70;99.90
57058;DHT22;55017;52.848;6.748;2023-05-15T00:50:11;12.70;99.90
57058;DHT22;55017;52.848;6.748;2023-05-15T00:52:37;12.80;99.90
57058;DHT22;55017;52.848;6.748;2023-05-15T00:55:03;12.90;99.90
57058;DHT22;55017;52.848;6.748;2023-05-15T00:57:30;12.80;99.90
57058;DHT22;55017;52.848;6.748;2023-05-15T00:59:57;12.80;99.90
57058;DHT22;55017;52.848;6.748;2023-05-15T01:02:23;12.80;99.90
57058;DHT22;55017;52.848;6.748;2023-05-15T01:04:49;12.90;99.90
57058;DHT22;55017;52.848;6.748;2023-05-15T01:07:15;13.00;99.90
57058;DHT22;55017;52.848;6.748;2023-05-15T01:09:43;12.80;99.90
57058;DHT22;55017;52.848;6.748;2023-05-15T01:12:10;12.80;99.90
57058;DHT22;55017;52.848;6.748;2023-05-15T01:14:39;12.80;99.90
57058;DHT22;55017;52.848;6.748;2023-05-15T01:17:04;12.80;99.90
57058;DHT22;55017;52.848;6.748;2023-05-15T01:19:30;12.80;99.90
57058;DHT22;55017;52.848;6.748;2023-05-15T01:24:54;12.90;99.90
57058;DHT22;55017;52.848;6.748;2023-05-15T01:27:25;13.10;99.90
57058;DHT22;55017;52.848;6.748;2023-05-15T01:35:30;12.60;99.90
57058;DHT22;55017;52.848;6.748;2023-05-15T01:40:52;12.70;99.90
57058;DHT22;55017;52.848;6.748;2023-05-15T01:43:22;12.70;99.90
57058;DHT22;55017;52.848;6.748;2023-05-15T01:45:49;12.60;99.90
57058;DHT22;55017;52.848;6.748;2023-05-15T01:48:16;12.70;99.90
57058;DHT22;55017;52.848;6.748;2023-05-15T01:50:44;12.70;99.90
57058;DHT22;55017;52.848;6.748;2023-05-15T01:53:11;12.70;99.90
57058;DHT22;55017;52.848;6.748;2023-05-15T01:55:39;12.60;99.90
57058;DHT22;55017;52.848;6.748;2023-05-15T01:58:06;12.60;99.90
57058;DHT22;55017;52.848;6.748;2023-05-15T02:00:32;12.50;99.90
57058;DHT22;55017;52.848;6.748;2023-05-15T02:02:58;12.70;99.90
57058;DHT22;55017;52.848;6.748;2023-05-15T02:05:25;12.60;99.90
57058;DHT22;55017;52.848;6.748;2023-05-15T02:07:51;12.50;99.90
57058;DHT22;55017;52.848;6.748;2023-05-15T02:10:18;12.40;99.90
57058;DHT22;55017;52.848;6.748;2023-05-15T02:12:44;12.30;99.90
57058;DHT22;55017;52.848;6.748;2023-05-15T02:15:11;12.30;99.90
57058;DHT22;55017;52.848;6.748;2023-05-15T02:17:37;12.40;99.90
57058;DHT22;55017;52.848;6.748;2023-05-15T02:20:03;12.30;99.90
57058;DHT22;55017;52.848;6.748;2023-05-15T02:22:32;12.30;99.90
57058;DHT22;55017;52.848;6.748;2023-05-15T02:24:58;12.30;99.90
57058;DHT22;55017;52.848;6.748;2023-05-15T02:27:32;12.20;99.90
57058;DHT22;55017;52.848;6.748;2023-05-15T02:30:27;12.30;99.90
57058;DHT22;55017;52.848;6.748;2023-05-15T02:35:56;12.10;99.90
57058;DHT22;55017;52.848;6.748;2023-05-15T02:38:28;12.20;99.90
57058;DHT22;55017;52.848;6.748;2023-05-15T02:40:55;12.20;99.90
57058;DHT22;55017;52.848;6.748;2023-05-15T02:43:22;12.10;99.90
57058;DHT22;55017;52.848;6.748;2023-05-15T02:45:48;12.10;99.90
57058;DHT22;55017;52.848;6.748;2023-05-15T02:48:15;12.20;99.90
57058;DHT22;55017;52.848;6.748;2023-05-15T02:50:42;12.20;99.90
57058;DHT22;55017;52.848;6.748;2023-05-15T02:53:08;12.00;99.90
57058;DHT22;55017;52.848;6.748;2023-05-15T02:55:35;12.00;99.90
57058;DHT22;55017;52.848;6.748;2023-05-15T02:58:01;12.20;99.90
57058;DHT22;55017;52.848;6.748;2023-05-15T03:00:27;12.00;99.90
57058;DHT22;55017;52.848;6.748;2023-05-15T03:02:53;12.00;99.90
57058;DHT22;55017;52.848;6.748;2023-05-15T03:05:19;12.00;99.90
57058;DHT22;55017;52.848;6.748;2023-05-15T03:07:45;12.00;99.90
57058;DHT22;55017;52.848;6.748;2023-05-15T03:10:11;12.00;99.90
57058;DHT22;55017;52.848;6.748;2023-05-15T03:12:37;12.00;99.90
57058;DHT22;55017;52.848;6.748;2023-05-15T03:15:04;12.00;99.90
57058;DHT22;55017;52.848;6.748;2023-05-15T03:17:30;11.90;99.90
57058;DHT22;55017;52.848;6.748;2023-05-15T03:19:55;11.90;99.90
57058;DHT22;55017;52.848;6.748;2023-05-15T03:22:21;11.90;99.90
57058;DHT22;55017;52.848;6.748;2023-05-15T03:24:46;11.90;99.90
57058;DHT22;55017;52.848;6.748;2023-05-15T03:27:12;11.90;99.90
57058;DHT22;55017;52.848;6.748;2023-05-15T03:29:38;11.80;99.90
57058;DHT22;55017;52.848;6.748;2023-05-15T03:32:03;12.00;99.90
57058;DHT22;55017;52.848;6.748;2023-05-15T03:34:29;11.90;99.90
57058;DHT22;55017;52.848;6.748;2023-05-15T03:36:54;11.90;99.90
57058;DHT22;55017;52.848;6.748;2023-05-15T03:39:20;11.80;99.90
57058;DHT22;55017;52.848;6.748;2023-05-15T03:41:46;11.90;99.90
57058;DHT22;55017;52.848;6.748;2023-05-15T03:44:11;11.80;99.90
57058;DHT22;55017;52.848;6.748;2023-05-15T03:46:37;12.00;99.90
57058;DHT22;55017;52.848;6.748;2023-05-15T03:49:02;11.70;99.90
57058;DHT22;55017;52.848;6.748;2023-05-15T03:51:28;11.60;99.90
57058;DHT22;55017;52.848;6.748;2023-05-15T03:53:54;11.60;99.90
57058;DHT22;55017;52.848;6.748;2023-05-15T03:56:19;11.70;99.90
57058;DHT22;55017;52.848;6.748;2023-05-15T03:58:45;11.70;99.90
57058;DHT22;55017;52.848;6.748;2023-05-15T04:01:11;11.70;99.90
57058;DHT22;55017;52.848;6.748;2023-05-15T04:03:36;11.70;99.90
57058;DHT22;55017;52.848;6.748;2023-05-15T04:06:02;11.70;99.90
57058;DHT22;55017;52.848;6.748;2023-05-15T04:08:28;11.70;99.90
57058;DHT22;55017;52.848;6.748;2023-05-15T04:10:53;11.70;99.90
57058;DHT22;55017;52.848;6.748;2023-05-15T04:13:19;11.70;99.90
57058;DHT22;55017;52.848;6.748;2023-05-15T04:15:44;11.70;99.90
57058;DHT22;55017;52.848;6.748;2023-05-15T04:18:10;11.60;99.90
57058;DHT22;55017;52.848;6.748;2023-05-15T04:20:36;11.60;99.90
57058;DHT22;55017;52.848;6.748;2023-05-15T04:23:02;11.70;99.90
57058;DHT22;55017;52.848;6.748;2023-05-15T04:25:30;11.60;99.90
57058;DHT22;55017;52.848;6.748;2023-05-15T04:27:55;11.60;99.90
57058;DHT22;55017;52.848;6.748;2023-05-15T04:30:21;11.70;99.90
57058;DHT22;55017;52.848;6.748;2023-05-15T04:32:48;11.70;99.90
57058;DHT22;55017;52.848;6.748;2023-05-15T04:35:13;11.70;99.90
57058;DHT22;55017;52.848;6.748;2023-05-15T04:37:40;11.80;99.90
57058;DHT22;55017;52.848;6.748;2023-05-15T04:40:07;11.70;99.90
57058;DHT22;55017;52.848;6.748;2023-05-15T04:42:34;11.70;99.90
57058;DHT22;55017;52.848;6.748;2023-05-15T04:45:01;11.60;99.90
57058;DHT22;55017;52.848;6.748;2023-05-15T04:47:27;11.70;99.90
57058;DHT22;55017;52.848;6.748;2023-05-15T04:49:52;11.60;99.90
57058;DHT22;55017;52.848;6.748;2023-05-15T04:52:18;11.50;99.90
57058;DHT22;55017;52.848;6.748;2023-05-15T04:54:43;11.50;99.90
57058;DHT22;55017;52.848;6.748;2023-05-15T04:57:09;11.50;99.90
57058;DHT22;55017;52.848;6.748;2023-05-15T04:59:35;11.50;99.90
57058;DHT22;55017;52.848;6.748;2023-05-15T05:02:01;11.50;99.90
57058;DHT22;55017;52.848;6.748;2023-05-15T05:04:27;11.50;99.90
57058;DHT22;55017;52.848;6.748;2023-05-15T05:06:52;11.50;99.90
57058;DHT22;55017;52.848;6.748;2023-05-15T05:09:19;11.60;99.90
57058;DHT22;55017;52.848;6.748;2023-05-15T05:11:45;11.60;99.90
57058;DHT22;55017;52.848;6.748;2023-05-15T05:14:11;11.40;99.90
57058;DHT22;55017;52.848;6.748;2023-05-15T05:16:37;11.50;99.90
57058;DHT22;55017;52.848;6.748;2023-05-15T05:19:04;11.50;99.90
57058;DHT22;55017;52.848;6.748;2023-05-15T05:21:30;11.40;99.90
57058;DHT22;55017;52.848;6.748;2023-05-15T05:23:56;11.50;99.90
57058;DHT22;55017;52.848;6.748;2023-05-15T05:26:22;11.40;99.90
57058;DHT22;55017;52.848;6.748;2023-05-15T05:28:48;11.50;99.90
57058;DHT22;55017;52.848;6.748;2023-05-15T05:31:13;11.40;99.90
57058;DHT22;55017;52.848;6.748;2023-05-15T05:33:39;11.40;99.90
57058;DHT22;55017;52.848;6.748;2023-05-15T05:36:05;11.50;99.90
57058;DHT22;55017;52.848;6.748;2023-05-15T05:38:31;11.50;99.90
57058;DHT22;55017;52.848;6.748;2023-05-15T05:40:57;11.50;99.90
57058;DHT22;55017;52.848;6.748;2023-05-15T05:43:24;11.60;99.90
57058;DHT22;55017;52.848;6.748;2023-05-15T05:45:50;11.60;99.90
57058;DHT22;55017;52.848;6.748;2023-05-15T05:48:16;11.40;99.90
57058;DHT22;55017;52.848;6.748;2023-05-15T05:50:42;11.50;99.90
57058;DHT22;55017;52.848;6.748;2023-05-15T05:53:07;11.30;99.90
57058;DHT22;55017;52.848;6.748;2023-05-15T05:55:33;11.40;99.90
57058;DHT22;55017;52.848;6.748;2023-05-15T05:57:58;11.40;99.90
57058;DHT22;55017;52.848;6.748;2023-05-15T06:00:24;11.50;99.90
57058;DHT22;55017;52.848;6.748;2023-05-15T06:02:54;11.40;99.90
57058;DHT22;55017;52.848;6.748;2023-05-15T06:05:20;11.50;99.90
57058;DHT22;55017;52.848;6.748;2023-05-15T06:07:47;11.50;99.90
57058;DHT22;55017;52.848;6.748;2023-05-15T06:10:13;11.50;99.90
57058;DHT22;55017;52.848;6.748;2023-05-15T06:12:39;11.50;99.90
57058;DHT22;55017;52.848;6.748;2023-05-15T06:15:05;11.50;99.90
57058;DHT22;55017;52.848;6.748;2023-05-15T06:17:31;11.60;99.90
57058;DHT22;55017;52.848;6.748;2023-05-15T06:19:56;11.50;99.90
57058;DHT22;55017;52.848;6.748;2023-05-15T06:22:22;11.70;99.90
57058;DHT22;55017;52.848;6.748;2023-05-15T06:24:48;11.90;99.90
57058;DHT22;55017;52.848;6.748;2023-05-15T06:27:13;11.90;99.90
57058;DHT22;55017;52.848;6.748;2023-05-15T06:29:39;12.10;99.90
57058;DHT22;55017;52.848;6.748;2023-05-15T06:32:05;11.90;99.90
57058;DHT22;55017;52.848;6.748;2023-05-15T06:34:30;11.90;99.90
57058;DHT22;55017;52.848;6.748;2023-05-15T06:36:56;12.10;99.90
57058;DHT22;55017;52.848;6.748;2023-05-15T06:39:22;12.00;99.90
57058;DHT22;55017;52.848;6.748;2023-05-15T06:41:47;12.20;99.90
57058;DHT22;55017;52.848;6.748;2023-05-15T06:44:13;12.20;99.90
57058;DHT22;55017;52.848;6.748;2023-05-15T06:46:38;12.30;99.90
57058;DHT22;55017;52.848;6.748;2023-05-15T06:49:04;12.30;99.90
57058;DHT22;55017;52.848;6.748;2023-05-15T06:51:30;12.60;99.90
57058;DHT22;55017;52.848;6.748;2023-05-15T06:53:55;12.70;99.90
57058;DHT22;55017;52.848;6.748;2023-05-15T06:56:21;12.70;99.90
57058;DHT22;55017;52.848;6.748;2023-05-15T06:58:47;12.90;99.90
57058;DHT22;55017;52.848;6.748;2023-05-15T07:01:12;13.00;99.90
57058;DHT22;55017;52.848;6.748;2023-05-15T07:03:38;13.30;99.90
57058;DHT22;55017;52.848;6.748;2023-05-15T07:06:04;13.30;99.90
57058;DHT22;55017;52.848;6.748;2023-05-15T07:08:29;13.50;99.90
57058;DHT22;55017;52.848;6.748;2023-05-15T07:10:55;13.70;99.90
57058;DHT22;55017;52.848;6.748;2023-05-15T07:13:21;13.90;99.90
57058;DHT22;55017;52.848;6.748;2023-05-15T07:15:46;13.90;99.90
57058;DHT22;55017;52.848;6.748;2023-05-15T07:18:12;14.10;99.90
57058;DHT22;55017;52.848;6.748;2023-05-15T07:20:38;14.20;99.90
57058;DHT22;55017;52.848;6.748;2023-05-15T07:23:04;14.30;99.90
57058;DHT22;55017;52.848;6.748;2023-05-15T07:25:30;14.40;99.90
57058;DHT22;55017;52.848;6.748;2023-05-15T07:27:55;14.40;99.90
57058;DHT22;55017;52.848;6.748;2023-05-15T07:30:21;14.60;99.90
57058;DHT22;55017;52.848;6.748;2023-05-15T07:32:47;14.80;99.90
57058;DHT22;55017;52.848;6.748;2023-05-15T07:35:13;15.00;99.90
57058;DHT22;55017;52.848;6.748;2023-05-15T07:37:39;14.90;99.90
57058;DHT22;55017;52.848;6.748;2023-05-15T07:40:05;15.30;99.90
57058;DHT22;55017;52.848;6.748;2023-05-15T07:42:31;15.40;99.90
57058;DHT22;55017;52.848;6.748;2023-05-15T07:44:57;16.20;98.80
57058;DHT22;55017;52.848;6.748;2023-05-15T07:47:22;16.10;99.90
57058;DHT22;55017;52.848;6.748;2023-05-15T07:49:48;16.10;99.90
57058;DHT22;55017;52.848;6.748;2023-05-15T07:52:13;16.00;99.90
57058;DHT22;55017;52.848;6.748;2023-05-15T07:54:39;16.10;99.90
57058;DHT22;55017;52.848;6.748;2023-05-15T07:57:07;16.20;99.30
57058;DHT22;55017;52.848;6.748;2023-05-15T07:59:34;16.10;99.50
57058;DHT22;55017;52.848;6.748;2023-05-15T08:01:59;16.30;99.90
57058;DHT22;55017;52.848;6.748;2023-05-15T08:04:25;16.30;99.60
57058;DHT22;55017;52.848;6.748;2023-05-15T08:06:50;16.40;99.90
57058;DHT22;55017;52.848;6.748;2023-05-15T08:09:16;16.60;99.40
57058;DHT22;55017;52.848;6.748;2023-05-15T08:11:42;16.80;97.00
57058;DHT22;55017;52.848;6.748;2023-05-15T08:14:08;16.90;96.00
57058;DHT22;55017;52.848;6.748;2023-05-15T08:16:33;17.00;93.90
57058;DHT22;55017;52.848;6.748;2023-05-15T08:18:59;17.10;93.50
57058;DHT22;55017;52.848;6.748;2023-05-15T08:21:29;17.10;92.20
57058;DHT22;55017;52.848;6.748;2023-05-15T08:23:55;17.20;91.10
57058;DHT22;55017;52.848;6.748;2023-05-15T08:26:21;17.30;91.80
57058;DHT22;55017;52.848;6.748;2023-05-15T08:28:47;17.40;91.40
57058;DHT22;55017;52.848;6.748;2023-05-15T08:31:12;17.60;91.30
57058;DHT22;55017;52.848;6.748;2023-05-15T08:33:38;17.80;91.60
57058;DHT22;55017;52.848;6.748;2023-05-15T08:36:04;17.80;86.60
57058;DHT22;55017;52.848;6.748;2023-05-15T08:38:30;17.90;85.30
57058;DHT22;55017;52.848;6.748;2023-05-15T08:40:57;18.00;86.90
57058;DHT22;55017;52.848;6.748;2023-05-15T08:43:26;18.20;86.20
57058;DHT22;55017;52.848;6.748;2023-05-15T08:45:54;18.20;83.90
57058;DHT22;55017;52.848;6.748;2023-05-15T08:48:20;18.30;82.60
57058;DHT22;55017;52.848;6.748;2023-05-15T08:50:47;18.40;81.70
57058;DHT22;55017;52.848;6.748;2023-05-15T08:53:13;18.70;80.10
57058;DHT22;55017;52.848;6.748;2023-05-15T08:55:40;18.70;81.40
57058;DHT22;55017;52.848;6.748;2023-05-15T08:58:07;18.80;81.30
57058;DHT22;55017;52.848;6.748;2023-05-15T09:00:33;19.20;80.30
57058;DHT22;55017;52.848;6.748;2023-05-15T09:02:59;19.10;77.10
57058;DHT22;55017;52.848;6.748;2023-05-15T09:05:28;19.30;76.50
57058;DHT22;55017;52.848;6.748;2023-05-15T09:07:54;19.30;75.70
57058;DHT22;55017;52.848;6.748;2023-05-15T09:10:20;19.30;75.80
57058;DHT22;55017;52.848;6.748;2023-05-15T09:12:46;19.50;75.00
57058;DHT22;55017;52.848;6.748;2023-05-15T09:15:16;19.60;75.20
57058;DHT22;55017;52.848;6.748;2023-05-15T09:17:43;19.70;76.00
57058;DHT22;55017;52.848;6.748;2023-05-15T09:20:27;19.70;76.20
57058;DHT22;55017;52.848;6.748;2023-05-15T09:22:55;19.90;75.20
57058;DHT22;55017;52.848;6.748;2023-05-15T09:25:38;19.90;75.20
57058;DHT22;55017;52.848;6.748;2023-05-15T09:28:10;20.00;74.10
57058;DHT22;55017;52.848;6.748;2023-05-15T09:30:41;20.10;74.30
57058;DHT22;55017;52.848;6.748;2023-05-15T09:33:08;20.10;75.00
57058;DHT22;55017;52.848;6.748;2023-05-15T09:35:35;20.10;75.90
57058;DHT22;55017;52.848;6.748;2023-05-15T09:38:04;20.20;74.10
57058;DHT22;55017;52.848;6.748;2023-05-15T09:40:32;20.20;73.50
57058;DHT22;55017;52.848;6.748;2023-05-15T09:42:58;20.40;74.40
57058;DHT22;55017;52.848;6.748;2023-05-15T09:45:23;20.60;73.30
57058;DHT22;55017;52.848;6.748;2023-05-15T09:47:55;20.60;72.90
57058;DHT22;55017;52.848;6.748;2023-05-15T09:50:25;20.90;72.80
57058;DHT22;55017;52.848;6.748;2023-05-15T09:52:58;21.00;73.10
57058;DHT22;55017;52.848;6.748;2023-05-15T09:55:23;21.20;71.70
57058;DHT22;55017;52.848;6.748;2023-05-15T09:58:12;21.30;70.20
57058;DHT22;55017;52.848;6.748;2023-05-15T10:00:39;21.30;66.80
57058;DHT22;55017;52.848;6.748;2023-05-15T10:03:06;21.30;68.70
57058;DHT22;55017;52.848;6.748;2023-05-15T10:05:32;21.40;68.60
57058;DHT22;55017;52.848;6.748;2023-05-15T10:07:58;21.60;69.40
57058;DHT22;55017;52.848;6.748;2023-05-15T10:10:25;21.70;68.70
57058;DHT22;55017;52.848;6.748;2023-05-15T10:12:52;21.90;65.80
57058;DHT22;55017;52.848;6.748;2023-05-15T10:15:20;21.80;64.60
57058;DHT22;55017;52.848;6.748;2023-05-15T10:17:47;21.80;64.20
57058;DHT22;55017;52.848;6.748;2023-05-15T10:20:15;21.70;64.70
57058;DHT22;55017;52.848;6.748;2023-05-15T10:22:45;21.50;65.40
57058;DHT22;55017;52.848;6.748;2023-05-15T10:27:53;21.70;64.70
57058;DHT22;55017;52.848;6.748;2023-05-15T10:30:21;21.70;66.00
57058;DHT22;55017;52.848;6.748;2023-05-15T10:32:47;21.60;64.50
57058;DHT22;55017;52.848;6.748;2023-05-15T10:35:14;21.60;63.50
57058;DHT22;55017;52.848;6.748;2023-05-15T10:37:41;21.50;61.50
57058;DHT22;55017;52.848;6.748;2023-05-15T10:40:09;21.30;62.70
57058;DHT22;55017;52.848;6.748;2023-05-15T10:42:36;21.20;63.70
57058;DHT22;55017;52.848;6.748;2023-05-15T10:45:03;21.40;63.10
57058;DHT22;55017;52.848;6.748;2023-05-15T10:47:29;21.60;63.90
57058;DHT22;55017;52.848;6.748;2023-05-15T10:49:56;21.80;64.40
57058;DHT22;55017;52.848;6.748;2023-05-15T10:52:23;22.10;63.10
57058;DHT22;55017;52.848;6.748;2023-05-15T10:54:48;22.30;63.00
57058;DHT22;55017;52.848;6.748;2023-05-15T10:57:14;22.50;63.60
57058;DHT22;55017;52.848;6.748;2023-05-15T10:59:40;22.60;62.00
57058;DHT22;55017;52.848;6.748;2023-05-15T11:02:24;22.60;62.30
57058;DHT22;55017;52.848;6.748;2023-05-15T11:04:55;22.70;59.30
57058;DHT22;55017;52.848;6.748;2023-05-15T11:07:21;22.80;57.20
57058;DHT22;55017;52.848;6.748;2023-05-15T11:09:48;22.60;58.90
57058;DHT22;55017;52.848;6.748;2023-05-15T11:12:14;22.50;58.80
57058;DHT22;55017;52.848;6.748;2023-05-15T11:17:18;22.50;59.10
57058;DHT22;55017;52.848;6.748;2023-05-15T11:22:21;22.80;59.20
57058;DHT22;55017;52.848;6.748;2023-05-15T11:25:00;22.90;60.30
57058;DHT22;55017;52.848;6.748;2023-05-15T11:27:31;22.90;61.00
57058;DHT22;55017;52.848;6.748;2023-05-15T11:32:47;22.90;58.80
57058;DHT22;55017;52.848;6.748;2023-05-15T11:35:38;22.80;59.60
57058;DHT22;55017;52.848;6.748;2023-05-15T11:38:22;22.80;57.80
57058;DHT22;55017;52.848;6.748;2023-05-15T11:40:53;22.80;57.30
57058;DHT22;55017;52.848;6.748;2023-05-15T11:43:29;23.00;58.70
57058;DHT22;55017;52.848;6.748;2023-05-15T11:46:07;22.90;58.70
57058;DHT22;55017;52.848;6.748;2023-05-15T11:48:43;22.90;57.70
57058;DHT22;55017;52.848;6.748;2023-05-15T11:51:19;22.70;59.00
57058;DHT22;55017;52.848;6.748;2023-05-15T11:53:46;22.60;60.40
57058;DHT22;55017;52.848;6.748;2023-05-15T11:56:16;22.60;60.80
57058;DHT22;55017;52.848;6.748;2023-05-15T11:58:42;22.50;61.80
57058;DHT22;55017;52.848;6.748;2023-05-15T12:01:09;22.30;62.30
57058;DHT22;55017;52.848;6.748;2023-05-15T12:03:35;22.50;63.00
57058;DHT22;55017;52.848;6.748;2023-05-15T12:06:02;22.70;63.20
57058;DHT22;55017;52.848;6.748;2023-05-15T12:08:35;22.70;62.60
57058;DHT22;55017;52.848;6.748;2023-05-15T12:11:02;22.80;60.80
57058;DHT22;55017;52.848;6.748;2023-05-15T12:13:28;22.90;58.90
57058;DHT22;55017;52.848;6.748;2023-05-15T12:15:55;22.80;59.50
57058;DHT22;55017;52.848;6.748;2023-05-15T12:18:21;22.90;61.70
57058;DHT22;55017;52.848;6.748;2023-05-15T12:20:47;23.00;60.70
57058;DHT22;55017;52.848;6.748;2023-05-15T12:23:15;22.90;59.50
57058;DHT22;55017;52.848;6.748;2023-05-15T12:25:42;22.80;60.60
57058;DHT22;55017;52.848;6.748;2023-05-15T12:28:09;22.70;61.20
57058;DHT22;55017;52.848;6.748;2023-05-15T12:30:36;22.70;62.40
57058;DHT22;55017;52.848;6.748;2023-05-15T12:33:03;22.90;63.10
57058;DHT22;55017;52.848;6.748;2023-05-15T12:35:31;22.80;61.60
57058;DHT22;55017;52.848;6.748;2023-05-15T12:37:59;22.80;61.80
57058;DHT22;55017;52.848;6.748;2023-05-15T12:40:25;22.70;62.20
57058;DHT22;55017;52.848;6.748;2023-05-15T12:42:52;22.60;62.50
57058;DHT22;55017;52.848;6.748;2023-05-15T12:45:20;22.60;62.10
57058;DHT22;55017;52.848;6.748;2023-05-15T12:47:46;22.60;61.60
57058;DHT22;55017;52.848;6.748;2023-05-15T12:50:17;22.70;61.60
57058;DHT22;55017;52.848;6.748;2023-05-15T12:52:52;22.70;62.00
57058;DHT22;55017;52.848;6.748;2023-05-15T12:55:23;22.90;61.30
57058;DHT22;55017;52.848;6.748;2023-05-15T12:57:55;22.90;58.90
57058;DHT22;55017;52.848;6.748;2023-05-15T13:00:22;22.80;58.50
57058;DHT22;55017;52.848;6.748;2023-05-15T13:02:49;22.60;59.40
57058;DHT22;55017;52.848;6.748;2023-05-15T13:05:15;22.60;60.00
57058;DHT22;55017;52.848;6.748;2023-05-15T13:07:42;22.60;60.40
57058;DHT22;55017;52.848;6.748;2023-05-15T13:10:08;22.60;59.60
57058;DHT22;55017;52.848;6.748;2023-05-15T13:12:43;22.40;59.10
57058;DHT22;55017;52.848;6.748;2023-05-15T13:17:53;22.50;61.70
57058;DHT22;55017;52.848;6.748;2023-05-15T13:20:22;22.50;61.90
57058;DHT22;55017;52.848;6.748;2023-05-15T13:22:48;22.50;61.40
57058;DHT22;55017;52.848;6.748;2023-05-15T13:25:17;22.60;60.80
57058;DHT22;55017;52.848;6.748;2023-05-15T13:27:43;23.60;57.60
57058;DHT22;55017;52.848;6.748;2023-05-15T13:30:09;23.10;57.70
57058;DHT22;55017;52.848;6.748;2023-05-15T13:32:35;23.00;59.30
57058;DHT22;55017;52.848;6.748;2023-05-15T13:35:01;22.90;58.10
57058;DHT22;55017;52.848;6.748;2023-05-15T13:37:27;22.90;59.00
57058;DHT22;55017;52.848;6.748;2023-05-15T13:39:52;23.00;59.00
57058;DHT22;55017;52.848;6.748;2023-05-15T13:42:19;23.00;57.50
57058;DHT22;55017;52.848;6.748;2023-05-15T13:44:45;23.60;51.70
57058;DHT22;55017;52.848;6.748;2023-05-15T13:47:10;23.00;54.30
57058;DHT22;55017;52.848;6.748;2023-05-15T13:49:36;22.70;57.00
57058;DHT22;55017;52.848;6.748;2023-05-15T13:52:01;22.60;58.00
57058;DHT22;55017;52.848;6.748;2023-05-15T13:54:28;22.30;56.00
57058;DHT22;55017;52.848;6.748;2023-05-15T13:56:54;22.20;57.80
57058;DHT22;55017;52.848;6.748;2023-05-15T13:59:19;22.20;58.80
57058;DHT22;55017;52.848;6.748;2023-05-15T14:01:45;22.20;59.50
57058;DHT22;55017;52.848;6.748;2023-05-15T14:04:11;22.30;59.90
57058;DHT22;55017;52.848;6.748;2023-05-15T14:06:37;22.50;59.70
57058;DHT22;55017;52.848;6.748;2023-05-15T14:09:02;22.40;59.60
57058;DHT22;55017;52.848;6.748;2023-05-15T14:11:29;22.40;59.30
57058;DHT22;55017;52.848;6.748;2023-05-15T14:13:54;22.40;59.90
57058;DHT22;55017;52.848;6.748;2023-05-15T14:16:20;22.30;59.50
57058;DHT22;55017;52.848;6.748;2023-05-15T14:18:45;22.10;60.60
57058;DHT22;55017;52.848;6.748;2023-05-15T14:21:11;22.10;60.20
57058;DHT22;55017;52.848;6.748;2023-05-15T14:23:37;22.00;60.80
57058;DHT22;55017;52.848;6.748;2023-05-15T14:26:02;22.00;61.40
57058;DHT22;55017;52.848;6.748;2023-05-15T14:28:28;21.90;61.50
57058;DHT22;55017;52.848;6.748;2023-05-15T14:30:53;21.70;61.90
57058;DHT22;55017;52.848;6.748;2023-05-15T14:33:19;21.40;62.40
57058;DHT22;55017;52.848;6.748;2023-05-15T14:35:45;21.40;63.10
57058;DHT22;55017;52.848;6.748;2023-05-15T14:38:10;21.30;62.90
57058;DHT22;55017;52.848;6.748;2023-05-15T14:40:36;21.20;62.40
57058;DHT22;55017;52.848;6.748;2023-05-15T14:43:02;21.20;63.10
57058;DHT22;55017;52.848;6.748;2023-05-15T14:45:27;21.30;62.90
57058;DHT22;55017;52.848;6.748;2023-05-15T14:47:53;21.30;64.00
57058;DHT22;55017;52.848;6.748;2023-05-15T14:50:18;21.20;63.60
57058;DHT22;55017;52.848;6.748;2023-05-15T14:52:44;21.00;62.70
57058;DHT22;55017;52.848;6.748;2023-05-15T14:55:10;21.00;63.50
57058;DHT22;55017;52.848;6.748;2023-05-15T14:57:36;20.60;62.90
57058;DHT22;55017;52.848;6.748;2023-05-15T15:00:03;20.40;63.10
57058;DHT22;55017;52.848;6.748;2023-05-15T15:02:30;20.30;63.20
57058;DHT22;55017;52.848;6.748;2023-05-15T15:04:56;20.20;63.90
57058;DHT22;55017;52.848;6.748;2023-05-15T15:07:27;21.10;61.30
57058;DHT22;55017;52.848;6.748;2023-05-15T15:09:52;20.70;61.80
57058;DHT22;55017;52.848;6.748;2023-05-15T15:12:18;20.40;62.90
57058;DHT22;55017;52.848;6.748;2023-05-15T15:14:43;20.40;62.60
57058;DHT22;55017;52.848;6.748;2023-05-15T15:17:09;20.20;62.90
57058;DHT22;55017;52.848;6.748;2023-05-15T15:19:35;20.10;63.20
57058;DHT22;55017;52.848;6.748;2023-05-15T15:22:00;20.00;63.00
57058;DHT22;55017;52.848;6.748;2023-05-15T15:24:26;19.70;64.10
57058;DHT22;55017;52.848;6.748;2023-05-15T15:26:52;19.60;64.50
57058;DHT22;55017;52.848;6.748;2023-05-15T15:29:18;19.40;65.20
57058;DHT22;55017;52.848;6.748;2023-05-15T15:31:44;19.40;65.70
57058;DHT22;55017;52.848;6.748;2023-05-15T15:34:09;19.40;65.80
57058;DHT22;55017;52.848;6.748;2023-05-15T15:36:35;19.20;66.80
57058;DHT22;55017;52.848;6.748;2023-05-15T15:39:06;19.20;67.50
57058;DHT22;55017;52.848;6.748;2023-05-15T15:41:31;19.10;68.00
57058;DHT22;55017;52.848;6.748;2023-05-15T15:43:57;18.90;68.60
57058;DHT22;55017;52.848;6.748;2023-05-15T15:46:22;18.90;69.40
57058;DHT22;55017;52.848;6.748;2023-05-15T15:48:48;18.90;69.50
57058;DHT22;55017;52.848;6.748;2023-05-15T15:51:14;18.80;70.10
57058;DHT22;55017;52.848;6.748;2023-05-15T15:53:39;18.90;70.00
57058;DHT22;55017;52.848;6.748;2023-05-15T15:56:06;18.80;69.70